createdAt,value
2022-07-29T00:01:19.223Z,-26.2
2022-07-29T00:03:18.322Z,-26.5
2022-07-29T00:05:19.417Z,-26.2
2022-07-29T00:07:20.691Z,-26
2022-07-29T00:09:22.498Z,-26.4
2022-07-29T00:11:23.396Z,-26.2
2022-07-29T00:13:31.922Z,-26.3
2022-07-29T00:15:25.434Z,-26.3
2022-07-29T00:17:27.306Z,-26.5
2022-07-29T00:21:29.882Z,-26.4
2022-07-29T00:23:33.773Z,-26.3
2022-07-29T00:25:33.881Z,-26.2
2022-07-29T00:27:34.571Z,-26.5
2022-07-29T00:29:36.341Z,-26.4
2022-07-29T00:31:37.810Z,-26.2
2022-07-29T00:33:39.517Z,-26.3
2022-07-29T00:35:40.914Z,-26.3
2022-07-29T00:37:42.013Z,-26.2
2022-07-29T00:43:45.608Z,-26.3
2022-07-29T00:45:47.094Z,-26.2
2022-07-29T00:47:48.602Z,-26.2
2022-07-29T00:49:50.298Z,-26.1
2022-07-29T00:51:51.941Z,-26.3
2022-07-29T00:53:52.927Z,-26.2
2022-07-29T00:57:54.933Z,-26.5
2022-07-29T00:59:56.579Z,-25.9
2022-07-29T01:01:58.198Z,-26.3
2022-07-29T01:03:59.694Z,-26.2
2022-07-29T01:06:01.102Z,-26.4
2022-07-29T01:08:02.877Z,-26.4
2022-07-29T01:10:04.211Z,-26.2
2022-07-29T01:12:05.262Z,-26.5
2022-07-29T01:14:06.699Z,-26.2
2022-07-29T01:16:08.179Z,-26.2
2022-07-29T01:18:09.382Z,-26.5
2022-07-29T01:20:10.578Z,-26.2
2022-07-29T01:24:14.265Z,-26.1
2022-07-29T01:26:15.572Z,-26.1
2022-07-29T01:28:17.281Z,-26.2
2022-07-29T01:30:18.570Z,-26.1
2022-07-29T01:32:28.626Z,-26.4
2022-07-29T01:34:21.339Z,-26.3
2022-07-29T01:36:22.773Z,-26
2022-07-29T01:38:23.791Z,-26.2
2022-07-29T01:40:25.637Z,-26.2
2022-07-29T01:42:27.467Z,-26.4
2022-07-29T01:44:29.236Z,-26.1
2022-07-29T01:46:30.739Z,-26.3
2022-07-29T01:48:32.080Z,-26.2
2022-07-29T01:50:33.410Z,-26.5
2022-07-29T01:52:34.430Z,-26.1
2022-07-29T01:54:36.289Z,-26.5
2022-07-29T01:56:37.444Z,-26.4
2022-07-29T01:58:39.123Z,-25.9
2022-07-29T02:00:40.110Z,-26.4
2022-07-29T02:02:41.472Z,-26.6
2022-07-29T02:06:44.457Z,-26.2
2022-07-29T02:08:45.787Z,-26.5
2022-07-29T02:10:47.333Z,-26.3
2022-07-29T02:12:50.595Z,-26.4
2022-07-29T02:14:49.604Z,-26.3
2022-07-29T02:16:50.976Z,-26.5
2022-07-29T02:18:52.041Z,-26.3
2022-07-29T02:20:53.308Z,-26.5
2022-07-29T02:22:55.158Z,-26.3
2022-07-29T02:24:56.740Z,-26.3
2022-07-29T02:26:58.391Z,-26.3
2022-07-29T02:29:00.092Z,-26.3
2022-07-29T02:31:01.046Z,-26.5
2022-07-29T02:33:02.885Z,-26.3
2022-07-29T02:35:03.976Z,-26.1
2022-07-29T02:39:07.167Z,-26.2
2022-07-29T02:41:08.215Z,-26.4
2022-07-29T02:43:09.362Z,-26.3
2022-07-29T02:45:10.800Z,-26.4
2022-07-29T02:47:11.792Z,-26.3
2022-07-29T02:49:13.310Z,-26.5
2022-07-29T02:51:15.095Z,-26.2
2022-07-29T02:53:16.458Z,-26.1
2022-07-29T02:55:17.763Z,-26.3
2022-07-29T02:57:19.426Z,-26.3
2022-07-29T02:59:20.394Z,-26.3
2022-07-29T03:01:22.021Z,-26.3
2022-07-29T03:07:24.621Z,-26.2
2022-07-29T03:09:26.123Z,-26.1
2022-07-29T03:11:40.173Z,-26.3
2022-07-29T03:13:28.559Z,-26.1
2022-07-29T03:15:30.311Z,-25.9
2022-07-29T03:17:31.891Z,-26.5
2022-07-29T03:21:34.958Z,-26.3
2022-07-29T03:23:36.591Z,-26.5
2022-07-29T03:25:38.152Z,-26.3
2022-07-29T03:27:39.074Z,-26.8
2022-07-29T03:29:40.742Z,-26.2
2022-07-29T03:31:43.698Z,-26.3
2022-07-29T03:33:43.435Z,-26.3
2022-07-29T03:35:45.226Z,-26.4
2022-07-29T03:37:46.325Z,-26.3
2022-07-29T03:39:47.983Z,-26.2
2022-07-29T03:41:49.166Z,-26.2
2022-07-29T03:45:51.875Z,-26.6
2022-07-29T03:49:55.366Z,-26.3
2022-07-29T03:51:56.241Z,-26.5
2022-07-29T03:53:57.913Z,-26.4
2022-07-29T03:55:59.479Z,-26.4
2022-07-29T03:58:01.013Z,-26.5
2022-07-29T04:00:02.343Z,-26.2
2022-07-29T04:02:03.842Z,-26.4
2022-07-29T04:04:05.080Z,-26.5
2022-07-29T04:06:06.724Z,-26.2
2022-07-29T04:08:08.583Z,-26.3
2022-07-29T04:10:10.448Z,-26.5
2022-07-29T04:12:11.679Z,-26.2
2022-07-29T04:14:13.719Z,-26.3
2022-07-29T04:16:14.766Z,-26.4
2022-07-29T04:20:16.892Z,-26.3
2022-07-29T04:22:18.356Z,-26.3
2022-07-29T04:24:20.146Z,-26.3
2022-07-29T04:26:21.444Z,-26.3
2022-07-29T04:28:23.275Z,-26.3
2022-07-29T04:32:26.018Z,-26.5
2022-07-29T04:34:28.095Z,-26.1
2022-07-29T04:36:29.014Z,-26.2
2022-07-29T04:38:29.404Z,-26.4
2022-07-29T04:40:31.301Z,-26.1
2022-07-29T04:42:32.683Z,-26.3
2022-07-29T04:46:35.827Z,-26.2
2022-07-29T04:48:37.595Z,-26.3
2022-07-29T04:50:38.600Z,-26.1
2022-07-29T04:52:39.851Z,-26.2
2022-07-29T04:54:41.276Z,-26.3
2022-07-29T04:56:42.388Z,-24.3
2022-07-29T04:58:44.187Z,-19.79
2022-07-29T05:00:45.116Z,-17.29
2022-07-29T05:02:46.240Z,-15.9
2022-07-29T05:06:49.099Z,-12.5
2022-07-29T05:08:50.150Z,-10.8
2022-07-29T05:09:33.895Z,-9.5
2022-07-29T05:13:45.627Z,-5.5
2022-07-29T05:15:37.246Z,-5.2
2022-07-29T05:17:38.243Z,-2.7
2022-07-29T05:19:39.366Z,-7.6
2022-07-29T05:21:40.551Z,-9.1
2022-07-29T05:23:41.988Z,-1.2
2022-07-29T05:27:44.903Z,11.1
2022-07-29T05:29:46.123Z,15.1
2022-07-29T05:31:47.940Z,18.4
2022-07-29T05:33:48.969Z,19.7
2022-07-29T05:35:49.912Z,21.9
2022-07-29T05:37:51.285Z,23.4
2022-07-29T05:39:56.997Z,30.6
2022-07-29T05:41:53.727Z,32.7
2022-07-29T05:43:54.881Z,40
2022-07-29T05:45:56.369Z,45
2022-07-29T05:49:59.047Z,54.8
2022-07-29T05:52:00.335Z,58.1
2022-07-29T05:54:02.035Z,63
2022-07-29T05:56:03.457Z,73.8
2022-07-29T05:58:04.919Z,73.4
2022-07-29T06:00:05.844Z,73
2022-07-29T06:02:07.615Z,72.6
2022-07-29T06:04:08.668Z,71.6
2022-07-29T06:06:09.640Z,71.19
2022-07-29T06:12:13.451Z,68.69
2022-07-29T06:14:15.335Z,67.69
2022-07-29T06:16:16.065Z,66.6
2022-07-29T06:18:17.387Z,65.9
2022-07-29T06:20:18.417Z,64.8
2022-07-29T06:22:19.741Z,63.4
2022-07-29T06:26:26.339Z,60.2
2022-07-29T06:28:24.425Z,58.6
2022-07-29T06:30:25.986Z,57.2
2022-07-29T06:32:27.567Z,55.8
2022-07-29T06:38:34.181Z,51.6
2022-07-29T06:40:33.318Z,49.8
2022-07-29T06:42:34.783Z,48
2022-07-29T06:44:35.666Z,46.1
2022-07-29T06:46:37.322Z,44.8
2022-07-29T06:48:38.420Z,42.3
2022-07-29T06:50:39.516Z,41
2022-07-29T06:52:40.965Z,39.7
2022-07-29T06:54:42.111Z,38.4
2022-07-29T06:56:43.879Z,36.09
2022-07-29T06:58:45.032Z,34.4
2022-07-29T07:00:46.371Z,31.8
2022-07-29T07:02:47.692Z,31.2
2022-07-29T07:04:49.450Z,29.3
2022-07-29T07:06:50.929Z,28.6
2022-07-29T07:08:52.078Z,26.8
2022-07-29T07:10:53.114Z,25.2
2022-07-29T07:12:53.870Z,23.5
2022-07-29T07:14:55.575Z,22.3
2022-07-29T07:16:57.060Z,21.4
2022-07-29T07:18:58.401Z,19.79
2022-07-29T07:20:59.997Z,18.2
2022-07-29T07:23:01.340Z,18.6
2022-07-29T07:25:02.192Z,17.2
2022-07-29T07:27:03.871Z,15.4
2022-07-29T07:29:05.447Z,14.2
2022-07-29T07:31:07.183Z,13.8
2022-07-29T07:33:08.475Z,14
2022-07-29T07:37:11.307Z,10.6
2022-07-29T07:39:12.939Z,9.2
2022-07-29T07:41:15.505Z,9.3
2022-07-29T07:43:16.413Z,10.6
2022-07-29T07:45:18.058Z,8.39
2022-07-29T07:47:19.364Z,-26.3
2022-07-29T07:51:22.110Z,-26
2022-07-29T07:53:23.138Z,-26.1
2022-07-29T07:55:24.746Z,-25.9
2022-07-29T07:57:26.263Z,-26.3
2022-07-29T07:59:27.915Z,-26.1
2022-07-29T08:01:29.552Z,-26.2
2022-07-29T08:03:31.256Z,-26.4
2022-07-29T08:05:32.470Z,-26
2022-07-29T08:07:33.813Z,-26.4
2022-07-29T08:09:35.598Z,-26.3
2022-07-29T08:11:37.663Z,-26.5
2022-07-29T08:13:38.253Z,-26.2
2022-07-29T08:15:39.511Z,-26.3
2022-07-29T08:17:41.160Z,-25.9
2022-07-29T08:19:42.874Z,-26.3
2022-07-29T08:23:45.880Z,-26
2022-07-29T08:25:46.253Z,-25.9
2022-07-29T08:27:47.741Z,-26.2
2022-07-29T08:29:49.108Z,-26.2
2022-07-29T08:35:52.814Z,-26.1
2022-07-29T08:37:54.821Z,-25.9
2022-07-29T08:39:56.359Z,-26.2
2022-07-29T08:41:57.748Z,-26.2
2022-07-29T08:43:58.238Z,-25.9
2022-07-29T08:45:59.103Z,-26.7
2022-07-29T08:48:00.156Z,-26.1
2022-07-29T08:50:00.933Z,-26.3
2022-07-29T08:52:02.338Z,-26.5
2022-07-29T08:54:03.716Z,-26.5
2022-07-29T08:56:04.853Z,-26.3
2022-07-29T08:58:06.451Z,-26.5
2022-07-29T09:00:08.043Z,-26.2
2022-07-29T09:02:08.087Z,-26.3
2022-07-29T09:06:10.701Z,-26.6
2022-07-29T09:08:11.624Z,-26.3
2022-07-29T09:10:13.333Z,-26.3
2022-07-29T09:12:14.113Z,-26.2
2022-07-29T09:14:15.025Z,-26.2
2022-07-29T09:16:26.837Z,-26.2
2022-07-29T09:18:19.633Z,-26.2
2022-07-29T09:20:18.875Z,-25.9
2022-07-29T09:22:20.121Z,-26.3
2022-07-29T09:24:21.037Z,-26.1
2022-07-29T09:26:22.166Z,-26.5
2022-07-29T09:28:23.557Z,-26.3
2022-07-29T09:32:25.657Z,-26
2022-07-29T09:34:26.596Z,-26.5
2022-07-29T09:36:27.940Z,-26.5
2022-07-29T09:38:29.289Z,-26
2022-07-29T09:40:30.633Z,-26.3
2022-07-29T09:42:31.582Z,-25.8
2022-07-29T09:44:33.032Z,-26.3
2022-07-29T09:46:34.642Z,-26
2022-07-29T09:48:36.264Z,-26.1
2022-07-29T09:50:38.576Z,-26.1
2022-07-29T09:54:41.366Z,-26.2
2022-07-29T09:56:42.421Z,-26.3
2022-07-29T09:58:43.571Z,-26
2022-07-29T10:00:45.108Z,-26.2
2022-07-29T10:02:46.556Z,-26.3
2022-07-29T10:04:47.697Z,-26.1
2022-07-29T10:06:48.536Z,-26.6
2022-07-29T10:08:50.114Z,-26.2
2022-07-29T10:10:51.557Z,-26.2
2022-07-29T10:14:53.718Z,-26.1
2022-07-29T10:16:55.357Z,-26.1
2022-07-29T10:18:56.894Z,-26.2
2022-07-29T10:20:58.281Z,-26.3
2022-07-29T10:22:59.572Z,-26
2022-07-29T10:25:00.568Z,-26.6
2022-07-29T10:27:01.864Z,-26.2
2022-07-29T10:29:02.911Z,-26
2022-07-29T10:31:04.562Z,-26.2
2022-07-29T10:33:05.726Z,-26.2
2022-07-29T10:35:07.680Z,-26
2022-07-29T10:37:09.082Z,-26.3
2022-07-29T10:43:12.042Z,-26.1
2022-07-29T10:47:14.215Z,-26.3
2022-07-29T10:49:15.530Z,-26.1
2022-07-29T10:51:16.742Z,-25.8
2022-07-29T10:53:17.800Z,-26.2
2022-07-29T10:59:21.432Z,-26.1
2022-07-29T11:01:36.887Z,-26.3
2022-07-29T11:03:23.106Z,-26.1
2022-07-29T11:05:24.611Z,-26.1
2022-07-29T11:07:25.832Z,-25.9
2022-07-29T11:09:35.174Z,-26.3
2022-07-29T11:15:31.691Z,-26.2
2022-07-29T11:17:37.456Z,-26.1
2022-07-29T11:19:32.997Z,-26.1
2022-07-29T11:21:36.028Z,-26.3
2022-07-29T11:23:36.602Z,-26.1
2022-07-29T11:25:42.611Z,-26.2
2022-07-29T11:27:39.246Z,-26
2022-07-29T11:29:40.531Z,-26.1
2022-07-29T11:31:41.735Z,-25.9
2022-07-29T11:35:44.523Z,-26.2
2022-07-29T11:39:46.274Z,-25.9
2022-07-29T11:41:47.429Z,-26.3
2022-07-29T11:43:50.586Z,-25.9
2022-07-29T11:45:50.201Z,-26.3
2022-07-29T11:47:52.707Z,-26.2
2022-07-29T11:49:54.027Z,-26.3
2022-07-29T11:51:55.338Z,-26.2
2022-07-29T11:56:40.852Z,-26.4
2022-07-29T11:58:41.938Z,-26
2022-07-29T12:00:43.013Z,-26.3
2022-07-29T12:02:44.217Z,-26.4
2022-07-29T12:04:44.976Z,-26.2
2022-07-29T12:06:46.211Z,-26.4
2022-07-29T12:08:47.742Z,-26.1
2022-07-29T12:10:49.361Z,-26
2022-07-29T12:12:50.176Z,-26.2
2022-07-29T12:14:51.391Z,-26.1
2022-07-29T12:16:52.741Z,-26.2
2022-07-29T12:18:54.417Z,-26.4
2022-07-29T12:20:55.833Z,-26.3
2022-07-29T12:22:57.085Z,-26.3
2022-07-29T12:25:11.747Z,-26.2
2022-07-29T12:27:02.416Z,-26.3
2022-07-29T12:29:02.464Z,-26.3
2022-07-29T12:35:06.538Z,-26.1
2022-07-29T12:37:07.509Z,-26.3
2022-07-29T12:39:08.759Z,-25.9
2022-07-29T12:41:10.027Z,-26.3
2022-07-29T12:43:11.026Z,-26.3
2022-07-29T12:45:12.223Z,-26.1
2022-07-29T12:51:16.829Z,-26.2
2022-07-29T12:53:17.923Z,-25.9
2022-07-29T12:55:19.267Z,-26
2022-07-29T12:57:29.357Z,-26.2
2022-07-29T12:59:21.553Z,-26.1
2022-07-29T13:01:22.649Z,-26.1
2022-07-29T13:03:24.039Z,-26.6
2022-07-29T13:05:24.977Z,-25.9
2022-07-29T13:07:39.742Z,-26.3
2022-07-29T13:17:32.512Z,5.4
2022-07-29T13:19:32.590Z,-1.6
2022-07-29T13:21:33.479Z,-12.3
2022-07-29T13:23:38.113Z,-14.2
2022-07-29T13:25:36.464Z,-15.3
2022-07-29T13:27:37.406Z,-14.5
2022-07-29T13:29:39.095Z,-17.79
2022-07-29T13:31:40.768Z,-21.6
2022-07-29T13:33:42.396Z,-25
2022-07-29T13:35:44.161Z,-25.6
2022-07-29T13:37:45.905Z,-24.2
2022-07-29T13:39:51.272Z,-23.8
2022-07-29T13:41:48.199Z,-24.3
2022-07-29T13:43:50.181Z,-20.8
2022-07-29T13:47:52.769Z,-2.5
2022-07-29T13:49:53.939Z,10.2
2022-07-29T13:51:55.825Z,15.3
2022-07-29T13:53:56.715Z,43.8
2022-07-29T13:55:57.675Z,52.9
2022-07-29T14:00:01.207Z,50.1
2022-07-29T14:02:02.530Z,0.5
2022-07-29T14:04:04.024Z,-6
2022-07-29T14:06:05.624Z,-3.8
2022-07-29T14:08:07.334Z,-3.7
2022-07-29T14:10:09.035Z,-8.1
2022-07-29T14:16:13.355Z,-26.6
2022-07-29T14:18:14.479Z,-26.1
2022-07-29T14:20:15.469Z,-26.7
2022-07-29T14:22:17.220Z,-26.4
2022-07-29T14:24:21.803Z,-26.3
2022-07-29T14:26:19.144Z,-26.5
2022-07-29T14:28:20.772Z,-26.4
2022-07-29T14:30:22.448Z,-26.3
2022-07-29T14:32:23.694Z,-26.3
2022-07-29T14:34:25.054Z,-26.4
2022-07-29T14:36:26.859Z,-26.3
2022-07-29T14:38:28.671Z,-26.2
2022-07-29T14:40:29.894Z,-26.2
2022-07-29T14:42:31.309Z,-26.4
2022-07-29T14:44:32.730Z,-26.3
2022-07-29T14:46:34.721Z,-26.3
2022-07-29T14:48:35.698Z,-26.6
2022-07-29T14:50:37.422Z,-26.6
2022-07-29T14:52:39.046Z,-26.3
2022-07-29T14:54:40.370Z,-26.2
2022-07-29T14:56:46.402Z,-26.4
2022-07-29T14:58:49.128Z,-25.5
2022-07-29T15:00:45.391Z,-16
2022-07-29T15:03:01.208Z,-14.8
2022-07-29T15:04:48.073Z,-13.1
2022-07-29T15:06:49.492Z,-10.5
2022-07-29T15:08:50.651Z,-14.6
2022-07-29T15:14:54.894Z,-9.6
2022-07-29T15:16:55.883Z,-4.6
2022-07-29T15:18:57.360Z,-1.3
2022-07-29T15:20:58.713Z,1.5
2022-07-29T15:23:00.330Z,1.2
2022-07-29T15:25:01.499Z,-0.2
2022-07-29T15:29:04.487Z,-9.7
2022-07-29T15:31:05.812Z,-15.4
2022-07-29T15:33:07.509Z,-21.9
2022-07-29T15:35:08.441Z,-22.5
2022-07-29T15:39:11.454Z,-22.5
2022-07-29T15:41:12.905Z,-21.4
2022-07-29T15:43:13.787Z,-15.3
2022-07-29T15:45:15.056Z,-10.4
2022-07-29T15:47:16.478Z,-6.1
2022-07-29T15:49:18.238Z,-0.1
2022-07-29T15:51:19.754Z,-5.1
2022-07-29T15:53:21.208Z,8.7
2022-07-29T15:55:22.100Z,48.9
2022-07-29T15:57:23.885Z,-3.7
2022-07-29T15:59:24.775Z,-15.3
2022-07-29T16:01:26.347Z,-23.8
2022-07-29T16:03:27.826Z,-26.6
2022-07-29T16:05:28.853Z,-26.4
2022-07-29T16:07:31.335Z,-26.2
2022-07-29T16:11:32.889Z,-26.7
2022-07-29T16:13:34.728Z,-26.6
2022-07-29T16:15:36.415Z,-26.2
2022-07-29T16:17:37.818Z,-26.5
2022-07-29T16:19:39.387Z,-26.4
2022-07-29T16:21:40.302Z,-26.8
2022-07-29T16:23:41.911Z,-26.9
2022-07-29T16:25:58.999Z,-26.4
2022-07-29T16:27:44.761Z,-26.5
2022-07-29T16:29:45.886Z,-26.6
2022-07-29T16:31:47.433Z,-26.5
2022-07-29T16:33:53.675Z,-26.5
2022-07-29T16:39:52.515Z,-26.6
2022-07-29T16:41:55.906Z,-26.5
2022-07-29T16:43:54.937Z,-26.5
2022-07-29T16:45:56.640Z,-26.7
2022-07-29T16:48:00.476Z,-26.3
2022-07-29T16:49:59.032Z,-26.3
2022-07-29T16:52:00.392Z,-26.5
2022-07-29T16:54:01.375Z,-26.4
2022-07-29T16:56:03.036Z,-26.3
2022-07-29T16:58:04.046Z,-26.4
2022-07-29T17:00:05.617Z,-26.5
2022-07-29T17:02:06.779Z,-26.1
2022-07-29T17:04:07.618Z,-26.5
2022-07-29T17:06:08.674Z,-26.1
2022-07-29T17:08:09.976Z,-26.5
2022-07-29T17:12:11.806Z,-26.5
2022-07-29T17:14:13.065Z,-26.5
2022-07-29T17:16:14.518Z,-26.6
2022-07-29T17:22:19.599Z,-26.5
2022-07-29T17:26:21.800Z,-26.7
2022-07-29T17:28:22.796Z,-26.5
2022-07-29T17:30:24.195Z,-26.1
2022-07-29T17:32:25.813Z,-26.3
2022-07-29T17:36:28.229Z,-26.1
2022-07-29T17:38:29.524Z,-26.5
2022-07-29T17:40:31.202Z,-26.3
2022-07-29T17:42:32.538Z,-26.2
2022-07-29T17:46:35.491Z,-26.5
2022-07-29T17:48:36.793Z,-26.4
2022-07-29T17:52:39.168Z,-26.5
2022-07-29T17:54:40.851Z,-26.3
2022-07-29T17:56:42.442Z,-26.2
2022-07-29T17:58:44.144Z,-26.2
2022-07-29T18:00:45.320Z,-26.3
2022-07-29T18:04:48.017Z,-26.4
2022-07-29T18:08:50.954Z,-26.6
2022-07-29T18:10:52.717Z,-26.4
2022-07-29T18:12:54.160Z,-26.5
2022-07-29T18:14:55.252Z,-26.5
2022-07-29T18:18:58.564Z,-26.2
2022-07-29T18:21:00.186Z,-26.5
2022-07-29T18:23:01.703Z,-26.1
2022-07-29T18:25:03.062Z,-26.3
2022-07-29T18:27:04.607Z,-26
2022-07-29T18:29:05.924Z,-26.2
2022-07-29T18:31:07.691Z,-26.2
2022-07-29T18:33:21.066Z,-26.5
2022-07-29T18:35:10.723Z,-26.3
2022-07-29T18:37:11.661Z,-26.3
2022-07-29T18:39:18.875Z,-26.4
2022-07-29T18:41:58.135Z,-26.2
2022-07-29T18:43:59.310Z,-26.3
2022-07-29T18:46:00.883Z,-26.1
2022-07-29T18:48:01.847Z,-26.3
2022-07-29T18:50:03.428Z,-26.3
2022-07-29T18:52:04.329Z,-26.5
2022-07-29T18:54:06.002Z,-26.2
2022-07-29T18:56:07.591Z,-26.3
2022-07-29T18:58:08.877Z,-26.5
2022-07-29T19:00:10.580Z,-26.1
2022-07-29T19:02:11.806Z,-26.3
2022-07-29T19:04:13.600Z,-26.2
2022-07-29T19:06:14.886Z,-26.3
2022-07-29T19:08:16.487Z,-26.2
2022-07-29T19:14:20.669Z,-26.5
2022-07-29T19:16:22.275Z,-26.2
2022-07-29T19:18:23.857Z,-26.1
2022-07-29T19:20:24.823Z,-26.3
2022-07-29T19:22:26.612Z,-26.3
2022-07-29T19:24:27.965Z,-26.2
2022-07-29T19:26:29.339Z,-26.2
2022-07-29T19:28:30.580Z,-26.1
2022-07-29T19:30:31.941Z,-26.1
2022-07-29T19:34:34.385Z,-26.1
2022-07-29T19:36:36.094Z,-26.3
2022-07-29T19:38:37.676Z,-26.3
2022-07-29T19:40:39.454Z,-26.3
2022-07-29T19:42:40.908Z,-26.4
2022-07-29T19:44:41.850Z,-26.3
2022-07-29T19:46:43.127Z,-26.2
2022-07-29T19:48:45.007Z,-26
2022-07-29T19:50:46.216Z,-25.9
2022-07-29T19:54:48.165Z,-26.2
2022-07-29T19:56:49.197Z,-26.2
2022-07-29T19:58:50.183Z,-26.3
2022-07-29T20:00:51.976Z,-26
2022-07-29T20:02:53.006Z,-26
2022-07-29T20:04:54.018Z,-26.2
2022-07-29T20:06:55.524Z,-26.2
2022-07-29T20:08:58.682Z,-26.2
2022-07-29T20:12:59.042Z,-26.2
2022-07-29T20:15:00.517Z,-26.3
2022-07-29T20:17:01.619Z,-26.1
2022-07-29T20:19:02.497Z,-26.2
2022-07-29T20:21:03.444Z,-26
2022-07-29T20:23:04.338Z,-26.2
2022-07-29T20:27:06.619Z,-26.1
2022-07-29T20:29:08.136Z,-25.9
2022-07-29T20:31:09.519Z,-26.1
2022-07-29T20:33:10.730Z,-26
2022-07-29T20:39:14.951Z,-26.2
2022-07-29T20:43:17.013Z,-26.3
2022-07-29T20:45:18.343Z,-26.2
2022-07-29T20:47:19.226Z,-26.1
2022-07-29T20:49:20.154Z,-26.2
2022-07-29T20:55:24.318Z,-26.1
2022-07-29T20:57:38.420Z,-26.1
2022-07-29T20:59:26.828Z,-26
2022-07-29T21:01:28.249Z,-26.2
2022-07-29T21:03:29.894Z,-26.3
2022-07-29T21:05:31.380Z,-26.1
2022-07-29T21:07:32.969Z,-26.1
2022-07-29T21:09:34.327Z,-25.9
2022-07-29T21:11:42.889Z,-26.1
2022-07-29T21:15:38.590Z,-26.1
2022-07-29T21:17:40.145Z,-26.2
2022-07-29T21:19:41.198Z,-26.2
2022-07-29T21:21:42.840Z,-26
2022-07-29T21:25:45.234Z,-26.1
2022-07-29T21:27:47.006Z,-25.9
2022-07-29T21:29:48.323Z,-26.2
2022-07-29T21:31:50.001Z,-26.2
2022-07-29T21:33:51.182Z,-26
2022-07-29T21:36:15.264Z,-25.9
2022-07-29T21:37:53.402Z,-25.9
2022-07-29T21:39:55.069Z,-26
2022-07-29T21:41:56.054Z,-26
2022-07-29T21:43:58.254Z,-26.1
2022-07-29T21:45:58.959Z,-26
2022-07-29T21:48:00.785Z,-26.2
2022-07-29T21:50:02.050Z,-26.1
2022-07-29T21:52:03.051Z,-26.2
2022-07-29T21:54:04.477Z,-26.1
2022-07-29T21:56:05.706Z,-26.2
2022-07-29T21:58:06.866Z,-26.4
2022-07-29T22:00:07.792Z,-26.1
2022-07-29T22:04:10.454Z,-26.3
2022-07-29T22:06:17.800Z,-26.2
2022-07-29T22:08:13.303Z,-26.2
2022-07-29T22:10:14.704Z,-26.5
2022-07-29T22:12:16.189Z,-26.1
2022-07-29T22:14:17.401Z,-26.2
2022-07-29T22:20:21.149Z,-26.1
2022-07-29T22:22:22.253Z,-26.3
2022-07-29T22:24:24.119Z,-26.4
2022-07-29T22:26:25.768Z,-26.7
2022-07-29T22:28:27.381Z,-26.7
2022-07-29T22:30:29.130Z,-26.3
2022-07-29T22:32:30.527Z,-26.6
2022-07-29T22:34:37.065Z,-26.2
2022-07-29T22:36:33.243Z,-26.1
2022-07-29T22:38:34.801Z,-26.3
2022-07-29T22:40:35.947Z,-26.3
2022-07-29T22:42:36.735Z,-26.6
2022-07-29T22:44:37.871Z,-26.5
2022-07-29T22:46:39.146Z,-26.4
2022-07-29T22:48:40.805Z,-26.7
2022-07-29T22:50:42.130Z,-26.7
2022-07-29T22:52:43.762Z,-26.5
2022-07-29T22:54:45.515Z,-26.9
2022-07-29T22:58:48.027Z,-26.7
2022-07-29T23:00:48.985Z,-26.9
2022-07-29T23:02:50.200Z,-26.9
2022-07-29T23:04:51.822Z,-26.8
2022-07-29T23:06:52.887Z,-26.9
2022-07-29T23:08:54.683Z,-26.9
2022-07-29T23:10:56.318Z,-27
2022-07-29T23:12:57.594Z,-26.8
2022-07-29T23:19:02.158Z,-26.7
2022-07-29T23:21:03.526Z,-26.9
2022-07-29T23:23:04.560Z,-26.9
2022-07-29T23:25:06.345Z,-27
2022-07-29T23:27:07.700Z,-26.9
2022-07-29T23:29:09.428Z,-27.1
2022-07-29T23:35:13.275Z,-27.1
2022-07-29T23:37:15.135Z,-27.2
2022-07-29T23:41:17.593Z,-27.2
2022-07-29T23:43:18.758Z,-26.8
2022-07-29T23:45:20.195Z,-27.1
2022-07-29T23:47:21.529Z,-27.1
2022-07-29T23:49:23.086Z,-27.2
2022-07-29T23:51:24.314Z,-27.3
2022-07-29T23:53:25.635Z,-27
2022-07-29T23:55:36.151Z,-26.8
2022-07-29T23:57:28.770Z,-27.2
2022-07-29T23:59:29.799Z,-27.4
